Time;durP1;ratioP1;P1;durP2;ratioP2;P2;SDS_P1;SDS_P2;PMS_P1;PMS_P2;Temp;Humidity;BMP_temperature;BMP_pressure;BME280_temperature;BME280_humidity;BME280_pressure;Samples;Min_cycle;Max_cycle;Signal;HPM_P1;HPM_P2
2023/02/15 09:02:52;;;;;;;7.30;5.23;;;12.00;46.40;;;;;;5048277;28;20550;-69
2023/02/15 09:05:18;;;;;;;7.57;5.40;;;13.40;46.40;;;;;;5047477;28;20454;-69
2023/02/15 09:07:43;;;;;;;7.50;5.90;;;13.50;46.40;;;;;;5047209;28;20588;-69
2023/02/15 09:10:09;;;;;;;7.30;5.50;;;13.50;46.20;;;;;;5047394;28;20207;-69
2023/02/15 09:12:35;;;;;;;6.10;5.23;;;13.70;46.10;;;;;;5046312;27;20242;-70
2023/02/15 09:15:00;;;;;;;6.77;5.90;;;13.80;46.00;;;;;;5048514;28;20409;-69
2023/02/15 09:17:26;;;;;;;6.27;5.00;;;13.90;45.80;;;;;;5047032;28;20192;-71
2023/02/15 09:19:52;;;;;;;6.37;5.20;;;14.00;45.80;;;;;;5045613;28;20175;-69
2023/02/15 09:22:17;;;;;;;6.50;5.37;;;14.10;45.60;;;;;;5046794;28;20214;-70
2023/02/15 09:24:43;;;;;;;7.27;4.93;;;14.20;45.50;;;;;;5046720;28;20178;-69
2023/02/15 09:27:08;;;;;;;4.30;3.90;;;14.30;45.40;;;;;;5046564;28;20196;-69
2023/02/15 09:29:34;;;;;;;5.00;4.50;;;14.40;45.40;;;;;;5046844;28;20181;-69
2023/02/15 09:31:59;;;;;;;7.20;4.37;;;14.50;45.20;;;;;;5046724;28;20737;-70
2023/02/15 09:34:25;;;;;;;5.47;4.30;;;14.60;45.70;;;;;;5045338;28;20183;-69
2023/02/15 09:36:51;;;;;;;5.73;4.70;;;14.60;45.10;;;;;;5046444;28;20206;-69
2023/02/15 09:39:17;;;;;;;4.93;4.20;;;14.70;45.00;;;;;;5046754;28;20179;-69
2023/02/15 09:42:01;;;;;;;6.70;4.33;;;14.80;45.00;;;;;;5046642;28;20457;-70
2023/02/15 09:44:35;;;;;;;4.00;3.60;;;14.80;45.00;;;;;;5045313;27;20175;-69
2023/02/15 09:47:18;;;;;;;4.50;3.73;;;14.80;45.00;;;;;;5046398;28;20433;-69
2023/02/15 09:49:52;;;;;;;4.80;3.70;;;14.90;44.90;;;;;;5046566;28;20393;-69
2023/02/15 09:52:39;;;;;;;5.03;3.60;;;14.90;44.80;;;;;;5046535;28;20480;-69
2023/02/15 09:55:31;;;;;;;4.97;4.43;;;15.00;44.90;;;;;;5046349;28;20899;-69
2023/02/15 09:58:05;;;;;;;6.00;4.50;;;15.00;44.80;;;;;;5046321;28;20429;-69
2023/02/15 10:01:04;;;;;;;4.67;4.27;;;15.10;44.80;;;;;;5044817;27;20465;-70
2023/02/15 10:03:54;;;;;;;4.63;3.90;;;15.10;44.80;;;;;;5034927;28;20426;-69
2023/02/15 10:06:41;;;;;;;4.07;3.67;;;15.20;44.80;;;;;;5033062;28;20418;-69
2023/02/15 10:09:15;;;;;;;4.60;4.10;;;15.20;44.80;;;;;;5033074;28;20414;-69
2023/02/15 10:12:27;;;;;;;6.10;3.90;;;15.30;44.70;;;;;;5032792;28;20819;-70
2023/02/15 10:15:17;;;;;;;6.27;3.60;;;15.40;44.70;;;;;;5056214;28;20465;-69
2023/02/15 10:17:43;;;;;;;3.93;3.63;;;15.50;44.70;;;;;;5032763;28;20469;-69
2023/02/15 10:20:28;;;;;;;5.00;3.80;;;15.60;44.50;;;;;;5032855;28;20491;-69
2023/02/15 10:23:06;;;;;;;4.20;3.80;;;15.70;44.50;;;;;;5032901;28;20152;-70
2023/02/15 10:25:55;;;;;;;4.83;3.40;;;15.80;44.40;;;;;;5032650;28;20466;-69
2023/02/15 10:28:38;;;;;;;4.17;3.20;;;15.90;44.40;;;;;;5032838;28;20426;-69
2023/02/15 10:31:32;;;;;;;3.83;3.43;;;15.90;44.20;;;;;;5032722;28;20443;-69
2023/02/15 10:34:18;;;;;;;3.73;3.10;;;16.00;44.20;;;;;;5031221;28;20450;-69
2023/02/15 10:37:10;;;;;;;5.57;3.97;;;16.10;44.20;;;;;;5032633;28;20438;-69
2023/02/15 10:40:03;;;;;;;4.00;3.23;;;16.10;44.10;;;;;;5032617;28;20403;-69
2023/02/15 10:42:47;;;;;;;3.60;3.13;;;16.10;44.00;;;;;;5032354;28;20859;-69
2023/02/15 10:45:30;;;;;;;4.20;3.80;;;16.20;44.00;;;;;;5032656;28;20391;-69
2023/02/15 10:48:11;;;;;;;6.17;3.20;;;16.20;43.90;;;;;;5032597;28;20437;-69
2023/02/15 10:50:47;;;;;;;3.80;3.30;;;16.30;43.90;;;;;;5032305;28;20402;-69
2023/02/15 10:53:22;;;;;;;3.70;3.37;;;16.40;43.90;;;;;;5032537;28;20387;-69
2023/02/15 10:56:19;;;;;;;3.93;3.33;;;16.40;43.80;;;;;;5032488;28;20410;-69
2023/02/15 10:59:07;;;;;;;4.10;3.70;;;16.40;43.70;;;;;;5032305;28;20399;-69
2023/02/15 11:01:51;;;;;;;4.47;3.40;;;16.50;43.80;;;;;;5032230;28;21027;-68
2023/02/15 11:04:16;;;;;;;3.60;3.30;;;16.50;43.70;;;;;;5032047;28;20479;-68
2023/02/15 11:06:53;;;;;;;3.63;3.23;;;16.50;43.60;;;;;;5032306;28;20455;-69
2023/02/15 11:09:22;;;;;;;5.37;3.50;;;16.60;43.60;;;;;;5032110;28;20158;-69
2023/02/15 11:11:53;;;;;;;3.93;3.53;;;16.60;43.50;;;;;;5032178;28;20432;-69
2023/02/15 11:14:30;;;;;;;3.30;3.00;;;16.60;43.50;;;;;;5031039;28;20409;-69
2023/02/15 11:17:02;;;;;;;4.27;3.70;;;16.70;43.50;;;;;;5032067;28;20463;-69
2023/02/15 11:19:38;;;;;;;4.77;3.87;;;16.70;43.40;;;;;;5031910;28;20899;-70
2023/02/15 11:22:06;;;;;;;3.73;3.13;;;16.70;43.40;;;;;;5031806;28;20469;-70
2023/02/15 11:24:43;;;;;;;7.33;3.30;;;16.80;43.40;;;;;;5032084;28;20399;-70
2023/02/15 11:27:26;;;;;;;3.50;3.20;;;16.80;43.70;;;;;;5031598;28;20428;-70
2023/02/15 11:29:54;;;;;;;3.47;3.17;;;16.80;43.60;;;;;;5031576;28;20410;-71
2023/02/15 11:32:25;;;;;;;3.73;3.10;;;16.90;43.70;;;;;;5031453;28;20421;-70
2023/02/15 11:35:14;;;;;;;3.27;2.80;;;16.90;43.70;;;;;;5031997;28;20832;-70
2023/02/15 11:38:02;;;;;;;5.93;4.20;;;17.00;43.70;;;;;;5039102;28;20453;-70
2023/02/15 11:40:33;;;;;;;4.00;3.40;;;16.90;43.50;;;;;;5031698;28;20445;-72
2023/02/15 11:43:05;;;;;;;3.93;3.30;;;16.90;43.60;;;;;;5031911;28;20405;-72
2023/02/15 11:45:34;;;;;;;3.53;3.23;;;16.90;43.50;;;;;;5031588;28;20762;-73
2023/02/15 11:48:01;;;;;;;7.30;3.70;;;17.00;43.60;;;;;;5031255;28;20434;-73
2023/02/15 11:50:32;;;;;;;4.50;3.47;;;17.00;43.50;;;;;;5031503;28;20442;-73
2023/02/15 11:53:20;;;;;;;4.20;3.80;;;17.00;44.00;;;;;;5031589;28;20391;-73
2023/02/15 11:55:48;;;;;;;3.63;3.33;;;17.00;44.00;;;;;;5031425;28;20444;-72
2023/02/15 11:58:30;;;;;;;5.53;3.27;;;17.00;43.40;;;;;;5031416;28;20584;-74
2023/02/15 12:01:16;;;;;;;4.67;3.60;;;17.00;43.40;;;;;;5030941;28;20993;-72
2023/02/15 12:03:50;;;;;;;3.80;3.37;;;17.00;43.40;;;;;;5031220;28;20391;-73
2023/02/15 12:06:28;;;;;;;3.40;3.10;;;17.00;43.50;;;;;;5031247;28;20398;-72
2023/02/15 12:09:24;;;;;;;4.13;3.70;;;17.00;43.50;;;;;;5031016;28;21010;-73
2023/02/15 12:11:49;;;;;;;4.60;3.90;;;17.00;43.40;;;;;;5031114;28;20957;-72
2023/02/15 12:14:15;;;;;;;4.33;3.93;;;17.00;43.50;;;;;;5030834;28;20414;-72
2023/02/15 12:16:50;;;;;;;4.37;3.97;;;17.00;43.50;;;;;;5030831;28;20249;-73
2023/02/15 12:19:36;;;;;;;3.73;3.43;;;17.00;43.60;;;;;;5031014;28;20169;-74
2023/02/15 12:22:04;;;;;;;4.13;3.73;;;17.00;43.50;;;;;;5031051;28;20443;-74
2023/02/15 12:24:45;;;;;;;5.50;3.87;;;17.00;43.60;;;;;;5030962;28;20387;-74
2023/02/15 12:27:24;;;;;;;3.80;3.40;;;17.00;43.60;;;;;;5030543;28;20433;-74
2023/02/15 12:29:57;;;;;;;4.27;3.87;;;17.00;43.60;;;;;;5030872;28;20383;-75
2023/02/15 12:32:47;;;;;;;4.87;4.00;;;17.00;43.50;;;;;;5030718;28;20871;-75
2023/02/15 12:35:34;;;;;;;3.67;3.20;;;17.00;43.50;;;;;;5030541;28;20866;-74
2023/02/15 12:38:08;;;;;;;4.40;3.70;;;17.10;43.60;;;;;;5030644;28;20474;-75
2023/02/15 12:40:35;;;;;;;3.90;3.37;;;17.10;43.60;;;;;;5030533;28;20453;-74
2023/02/15 12:43:08;;;;;;;4.60;4.00;;;17.10;44.20;;;;;;5029479;28;20406;-75
2023/02/15 12:45:36;;;;;;;3.40;3.10;;;17.10;43.60;;;;;;5030641;28;20896;-70
2023/02/15 12:48:16;;;;;;;3.90;3.10;;;17.10;43.90;;;;;;5030396;28;20923;-70
2023/02/15 12:50:43;;;;;;;3.70;3.23;;;17.10;44.20;;;;;;5029393;28;20448;-70
2023/02/15 12:53:19;;;;;;;3.43;3.13;;;17.20;44.50;;;;;;5030367;28;21013;-73
2023/02/15 12:56:06;;;;;;;4.43;3.93;;;17.20;44.50;;;;;;5030617;28;20437;-70
2023/02/15 12:58:33;;;;;;;3.73;3.43;;;17.30;44.50;;;;;;5030451;28;20563;-69
2023/02/15 13:01:17;;;;;;;3.20;2.90;;;17.30;44.50;;;;;;5030197;28;20498;-68
2023/02/15 13:04:17;;;;;;;4.17;3.50;;;17.40;44.50;;;;;;5030321;28;20899;-68
2023/02/15 13:06:49;;;;;;;3.50;3.10;;;17.40;44.40;;;;;;5030022;28;20434;-68
2023/02/15 13:09:19;;;;;;;4.83;3.37;;;17.40;44.40;;;;;;5030334;28;20474;-69
2023/02/15 13:11:45;;;;;;;4.00;3.37;;;17.50;44.40;;;;;;5030455;28;20399;-68
2023/02/15 13:14:33;;;;;;;4.23;3.83;;;17.50;44.30;;;;;;5030062;28;20417;-68
2023/02/15 13:17:02;;;;;;;4.00;3.60;;;17.50;44.20;;;;;;5030541;28;20458;-68
2023/02/15 13:19:36;;;;;;;4.03;3.43;;;17.50;44.20;;;;;;5030162;28;20867;-68
2023/02/15 13:22:08;;;;;;;3.40;2.97;;;17.50;44.20;;;;;;5029843;28;20453;-69
2023/02/15 13:24:40;;;;;;;4.40;3.47;;;17.60;44.30;;;;;;5029990;28;20476;-68
2023/02/15 13:27:13;;;;;;;4.10;3.63;;;17.60;44.30;;;;;;5030148;28;20555;-68
2023/02/15 13:29:39;;;;;;;3.70;3.40;;;17.60;44.30;;;;;;5030048;28;21005;-68
2023/02/15 13:32:26;;;;;;;4.23;3.83;;;17.60;44.20;;;;;;5030041;28;20410;-68
2023/02/15 13:34:56;;;;;;;4.03;3.00;;;17.60;44.20;;;;;;5029328;28;20390;-69
2023/02/15 13:37:50;;;;;;;4.40;4.00;;;17.60;44.10;;;;;;5029164;28;20461;-68
2023/02/15 13:40:42;;;;;;;4.10;3.70;;;17.60;44.10;;;;;;5032995;27;21044;-68
2023/02/15 13:43:38;;;;;;;4.80;4.03;;;17.60;44.10;;;;;;5060166;28;20437;-68
2023/02/15 13:46:42;;;;;;;3.77;3.37;;;17.60;44.10;;;;;;5033185;28;20437;-68
2023/02/15 13:49:29;;;;;;;4.80;4.20;;;17.60;44.20;;;;;;5033959;28;20410;-68
2023/02/15 13:52:09;;;;;;;5.23;4.07;;;17.60;44.20;;;;;;5033151;28;20417;-68
2023/02/15 13:55:09;;;;;;;4.60;3.80;;;17.60;44.20;;;;;;5032953;28;20505;-68
2023/02/15 13:58:24;;;;;;;4.03;3.57;;;17.60;44.20;;;;;;5032976;28;20428;-69
2023/02/15 14:01:09;;;;;;;4.90;3.67;;;17.60;44.20;;;;;;5061052;28;20469;-68
2023/02/15 14:03:52;;;;;;;4.40;4.00;;;17.60;44.30;;;;;;5032612;28;20484;-68
2023/02/15 14:06:28;;;;;;;3.97;3.60;;;17.60;44.20;;;;;;5032842;28;20437;-68
2023/02/15 14:09:18;;;;;;;4.73;3.83;;;17.60;44.30;;;;;;5031777;28;20394;-69
2023/02/15 14:11:59;;;;;;;4.50;4.00;;;17.70;44.40;;;;;;5031798;28;20505;-68
2023/02/15 14:14:43;;;;;;;5.50;4.17;;;17.60;44.20;;;;;;5032867;27;20414;-68
2023/02/15 14:17:18;;;;;;;4.53;4.13;;;17.70;44.30;;;;;;5032375;28;20430;-68
2023/02/15 14:19:50;;;;;;;4.73;4.20;;;17.70;44.40;;;;;;5033329;28;20394;-69
2023/02/15 14:22:32;;;;;;;5.03;4.20;;;17.70;44.30;;;;;;5031524;28;20499;-68
2023/02/15 14:25:23;;;;;;;4.30;3.83;;;17.80;44.30;;;;;;5032718;28;20967;-68
2023/02/15 14:28:07;;;;;;;3.90;3.57;;;17.80;44.30;;;;;;5032298;28;20479;-68
2023/02/15 14:30:37;;;;;;;4.83;3.63;;;17.80;44.20;;;;;;5032511;28;20506;-68
2023/02/15 14:33:16;;;;;;;4.67;4.17;;;17.90;44.40;;;;;;5032526;28;20439;-68
2023/02/15 14:35:42;;;;;;;4.63;3.80;;;17.90;44.30;;;;;;5032487;28;20409;-68
2023/02/15 14:38:26;;;;;;;4.37;3.77;;;17.80;44.10;;;;;;5032208;28;20426;-68
2023/02/15 14:41:00;;;;;;;4.40;4.00;;;17.80;44.20;;;;;;5032535;28;20457;-68
2023/02/15 14:43:32;;;;;;;4.60;4.20;;;17.80;44.20;;;;;;5032390;28;20401;-68
2023/02/15 14:46:17;;;;;;;4.33;3.93;;;17.90;44.30;;;;;;5032685;28;20750;-68
2023/02/15 14:48:50;;;;;;;3.73;3.37;;;17.90;44.40;;;;;;5042133;28;20422;-69
2023/02/15 14:51:45;;;;;;;4.70;3.70;;;17.90;44.50;;;;;;5032061;28;20915;-69
2023/02/15 14:54:32;;;;;;;3.70;3.40;;;18.00;44.70;;;;;;5032653;28;20426;-69
2023/02/15 14:57:01;;;;;;;3.43;3.13;;;18.00;45.00;;;;;;5031746;28;20438;-70
2023/02/15 15:00:06;;;;;;;3.53;3.20;;;18.00;45.10;;;;;;5031843;28;20510;-70
2023/02/15 15:02:52;;;;;;;5.93;3.20;;;18.10;45.20;;;;;;5031615;28;20935;-70
2023/02/15 15:05:33;;;;;;;5.00;4.50;;;18.20;45.20;;;;;;5031840;28;20406;-70
2023/02/15 15:08:02;;;;;;;6.80;3.50;;;18.30;45.20;;;;;;5031965;28;20775;-70
2023/02/15 15:10:36;;;;;;;5.03;4.17;;;18.30;45.10;;;;;;5031877;28;20414;-70
2023/02/15 15:13:30;;;;;;;5.77;3.83;;;18.30;45.10;;;;;;5031705;28;20403;-70
2023/02/15 15:16:16;;;;;;;6.43;3.30;;;18.40;45.00;;;;;;5032122;28;20800;-68
2023/02/15 15:18:48;;;;;;;5.93;3.23;;;18.40;45.00;;;;;;5031431;28;20426;-67
2023/02/15 15:21:45;;;;;;;6.70;4.00;;;18.40;45.00;;;;;;5031548;28;20458;-67
2023/02/15 15:24:37;;;;;;;4.20;3.70;;;18.40;45.00;;;;;;5036647;28;20417;-69
2023/02/15 15:27:40;;;;;;;3.87;3.50;;;18.30;45.00;;;;;;5031413;28;20801;-70
2023/02/15 15:30:14;;;;;;;5.30;3.87;;;18.30;45.10;;;;;;5031428;28;20478;-68
2023/02/15 15:32:55;;;;;;;10.87;3.77;;;18.20;45.10;;;;;;5031718;28;20413;-66
2023/02/15 15:35:46;;;;;;;4.90;3.43;;;18.20;45.20;;;;;;5031408;28;20409;-67
2023/02/15 15:38:43;;;;;;;9.00;5.00;;;18.20;45.40;;;;;;5031486;28;20513;-68
2023/02/15 15:41:30;;;;;;;10.60;3.57;;;18.20;45.30;;;;;;5031538;28;20503;-68
2023/02/15 15:44:41;;;;;;;8.37;4.07;;;18.10;44.90;;;;;;5031178;28;20406;-68
2023/02/15 15:47:40;;;;;;;7.77;4.53;;;18.10;44.80;;;;;;5053800;28;20517;-68
2023/02/15 15:50:14;;;;;;;6.03;3.90;;;18.00;44.90;;;;;;5031374;28;20493;-67
2023/02/15 15:52:45;;;;;;;9.57;4.93;;;18.00;44.90;;;;;;5031183;28;20394;-68
2023/02/15 15:55:17;;;;;;;4.63;3.83;;;17.90;44.90;;;;;;5031256;28;20406;-67
2023/02/15 15:57:45;;;;;;;8.17;4.23;;;17.80;44.90;;;;;;5031188;28;20430;-67
2023/02/15 16:00:51;;;;;;;5.87;3.90;;;17.80;44.90;;;;;;5030333;28;20495;-67
2023/02/15 16:03:25;;;;;;;6.80;3.93;;;17.70;45.20;;;;;;5048048;28;20441;-66
2023/02/15 16:05:55;;;;;;;9.60;3.90;;;17.60;45.20;;;;;;5030976;28;20819;-67
2023/02/15 16:08:38;;;;;;;5.30;3.73;;;17.50;45.20;;;;;;5030742;28;20438;-66
2023/02/15 16:11:24;;;;;;;4.43;4.00;;;17.50;45.20;;;;;;5031012;28;20471;-67
2023/02/15 16:13:50;;;;;;;5.67;4.00;;;17.40;45.30;;;;;;5031057;28;20757;-67
2023/02/15 16:16:27;;;;;;;4.97;4.27;;;17.40;45.50;;;;;;5030852;28;20414;-67
2023/02/15 16:18:54;;;;;;;6.43;4.43;;;17.30;45.40;;;;;;5030850;28;20442;-68
2023/02/15 16:21:23;;;;;;;5.00;3.90;;;17.30;45.40;;;;;;5030740;28;20461;-68
2023/02/15 16:23:48;;;;;;;5.27;4.20;;;17.20;45.40;;;;;;5029603;28;20505;-66
2023/02/15 16:26:51;;;;;;;7.83;4.50;;;17.20;45.40;;;;;;5030394;28;20478;-67
2023/02/15 16:29:26;;;;;;;6.30;4.20;;;17.10;45.30;;;;;;5030928;28;20164;-67
2023/02/15 16:32:15;;;;;;;5.10;3.90;;;17.10;45.50;;;;;;5030777;28;20414;-67
2023/02/15 16:34:54;;;;;;;5.90;4.03;;;17.00;45.50;;;;;;5030669;28;20495;-67
2023/02/15 16:37:23;;;;;;;6.00;4.00;;;17.00;45.50;;;;;;5030713;28;20586;-67
2023/02/15 16:39:50;;;;;;;5.57;4.23;;;16.90;45.60;;;;;;5030788;28;20930;-67
2023/02/15 16:42:17;;;;;;;6.47;4.93;;;16.90;45.70;;;;;;5030827;28;20825;-67
2023/02/15 16:44:44;;;;;;;4.93;3.80;;;16.90;45.70;;;;;;5030772;28;20421;-67
2023/02/15 16:47:33;;;;;;;5.97;4.30;;;16.80;45.70;;;;;;5030459;28;20422;-67
2023/02/15 16:50:02;;;;;;;4.70;3.90;;;16.80;45.70;;;;;;5030627;28;20460;-66
2023/02/15 16:52:28;;;;;;;6.33;4.63;;;16.80;45.70;;;;;;5030682;28;20476;-67
2023/02/15 16:55:00;;;;;;;5.27;4.17;;;16.80;45.70;;;;;;5030566;28;20413;-67
2023/02/15 16:57:31;;;;;;;7.33;5.50;;;16.80;45.70;;;;;;5030251;28;20476;-67
2023/02/15 17:00:05;;;;;;;7.33;4.27;;;16.80;45.70;;;;;;5030677;28;20403;-67
2023/02/15 17:02:33;;;;;;;5.30;4.10;;;16.70;45.60;;;;;;5030413;28;21005;-65
2023/02/15 17:05:10;;;;;;;5.10;4.40;;;16.70;45.60;;;;;;5030342;28;20414;-66
2023/02/15 17:07:42;;;;;;;5.40;4.40;;;16.70;45.60;;;;;;5030519;28;20426;-67
2023/02/15 17:10:28;;;;;;;4.97;4.40;;;16.70;45.60;;;;;;5030329;28;20434;-66
2023/02/15 17:12:56;;;;;;;5.30;3.90;;;16.70;45.50;;;;;;5031440;28;20414;-66
2023/02/15 17:15:30;;;;;;;4.90;4.17;;;16.70;45.60;;;;;;5033333;28;20450;-66
2023/02/15 17:18:10;;;;;;;5.13;4.43;;;16.70;46.10;;;;;;5033457;28;20429;-66
2023/02/15 17:20:38;;;;;;;4.30;3.90;;;16.70;45.50;;;;;;5033162;28;20515;-66
2023/02/15 17:23:04;;;;;;;5.30;4.17;;;16.70;45.50;;;;;;5033629;28;20422;-65
2023/02/15 17:25:42;;;;;;;5.87;4.83;;;16.70;45.50;;;;;;5033291;28;20404;-66
2023/02/15 17:28:21;;;;;;;6.43;5.63;;;16.70;45.40;;;;;;5033330;28;20425;-66
2023/02/15 17:30:48;;;;;;;4.80;4.30;;;16.70;45.40;;;;;;5031947;28;20529;-65
2023/02/15 17:33:28;;;;;;;4.33;3.73;;;16.70;45.40;;;;;;5033339;28;20787;-66
2023/02/15 17:36:05;;;;;;;5.80;4.20;;;16.70;45.40;;;;;;5033958;28;20433;-66
2023/02/15 17:38:31;;;;;;;6.43;4.40;;;16.70;45.40;;;;;;5033427;28;20422;-66
2023/02/15 17:40:58;;;;;;;6.70;4.53;;;16.70;45.30;;;;;;5033198;28;20457;-65
2023/02/15 17:43:24;;;;;;;5.87;5.17;;;16.70;45.30;;;;;;5033197;28;20414;-64
2023/02/15 17:45:51;;;;;;;5.63;4.40;;;16.70;45.30;;;;;;5033244;28;20410;-65
2023/02/15 17:48:35;;;;;;;5.77;4.53;;;16.70;45.30;;;;;;5033016;28;20522;-65
2023/02/15 17:51:02;;;;;;;6.23;4.97;;;16.70;45.30;;;;;;5033133;28;20422;-67
2023/02/15 17:53:28;;;;;;;5.03;4.43;;;16.70;45.30;;;;;;5033430;28;20402;-66
2023/02/15 17:55:54;;;;;;;8.63;4.60;;;16.70;45.20;;;;;;5033409;28;20422;-67
2023/02/15 17:58:21;;;;;;;5.73;4.50;;;16.70;45.20;;;;;;5032839;28;20227;-67
2023/02/15 18:12:27;;;;;;;4.93;4.27;;;16.70;45.40;;;;;;5033073;28;20463;-65
2023/02/15 18:14:54;;;;;;;7.20;6.00;;;16.70;45.30;;;;;;5032938;28;20418;-67
2023/02/15 18:17:26;;;;;;;5.80;4.37;;;16.70;45.30;;;;;;5032639;28;20435;-67
2023/02/15 18:19:53;;;;;;;10.30;5.07;;;16.70;45.20;;;;;;5031578;28;20450;-67
2023/02/15 18:22:18;;;;;;;5.70;4.30;;;16.70;45.20;;;;;;5032784;28;20514;-67
2023/02/15 18:24:45;;;;;;;5.70;4.70;;;16.70;45.20;;;;;;5032442;28;20510;-66
2023/02/15 18:27:12;;;;;;;5.10;4.60;;;16.70;45.20;;;;;;5032534;28;20535;-67
2023/02/15 18:29:37;;;;;;;5.90;4.70;;;16.70;45.10;;;;;;5032912;28;20415;-67
2023/02/15 18:32:07;;;;;;;6.30;5.10;;;16.70;45.10;;;;;;5032504;28;20426;-67
2023/02/15 18:34:39;;;;;;;5.53;4.93;;;16.70;45.10;;;;;;5032660;28;20176;-66
2023/02/15 18:37:06;;;;;;;5.40;4.70;;;16.70;45.10;;;;;;5032387;28;20935;-66
2023/02/15 18:39:52;;;;;;;6.10;5.40;;;16.70;45.10;;;;;;5032591;28;20422;-67
2023/02/15 18:42:18;;;;;;;7.63;4.87;;;16.70;45.10;;;;;;5031505;28;20468;-66
2023/02/15 18:44:43;;;;;;;6.90;4.90;;;16.70;45.10;;;;;;5032402;28;20410;-66
2023/02/15 18:47:09;;;;;;;5.83;5.27;;;16.60;45.00;;;;;;5032174;28;20191;-67
2023/02/15 18:49:35;;;;;;;5.17;4.67;;;16.70;45.10;;;;;;5032100;28;20182;-66
2023/02/15 18:52:01;;;;;;;5.73;5.13;;;16.60;45.00;;;;;;5032213;28;20195;-66
2023/02/15 18:54:27;;;;;;;6.83;4.77;;;16.60;45.00;;;;;;5032111;28;20184;-66
2023/02/15 18:56:59;;;;;;;5.77;4.90;;;16.70;45.10;;;;;;5032082;28;20515;-66
2023/02/15 18:59:26;;;;;;;6.43;5.13;;;16.60;45.00;;;;;;5032152;28;20228;-66
2023/02/15 19:01:53;;;;;;;7.20;5.63;;;16.60;45.50;;;;;;5031849;28;20502;-66
2023/02/15 19:04:19;;;;;;;6.90;5.50;;;16.60;45.00;;;;;;5032043;28;20414;-66
2023/02/15 19:06:47;;;;;;;5.40;4.90;;;16.60;44.90;;;;;;5031846;28;20780;-66
2023/02/15 19:09:19;;;;;;;6.10;5.33;;;16.60;44.90;;;;;;5031565;28;20414;-65
2023/02/15 19:11:52;;;;;;;5.53;4.87;;;16.60;45.10;;;;;;5031949;28;20426;-66
2023/02/15 19:14:25;;;;;;;7.50;6.70;;;16.60;45.00;;;;;;5031755;28;20917;-66
2023/02/15 19:16:51;;;;;;;7.93;4.90;;;16.60;45.00;;;;;;5031880;28;20525;-66
2023/02/15 19:19:17;;;;;;;7.40;5.07;;;16.60;44.90;;;;;;5031931;28;20494;-66
2023/02/15 19:21:42;;;;;;;8.13;6.47;;;16.60;44.90;;;;;;5031429;28;20203;-66
2023/02/15 19:24:16;;;;;;;5.63;5.03;;;16.60;44.90;;;;;;5032209;28;20176;-66
2023/02/15 19:26:42;;;;;;;7.90;6.10;;;16.60;44.80;;;;;;5031667;28;20248;-66
2023/02/15 19:29:11;;;;;;;7.03;5.67;;;16.60;44.80;;;;;;5031937;28;20466;-66
2023/02/15 19:31:36;;;;;;;7.27;6.47;;;16.60;44.80;;;;;;5030267;28;20406;-66
2023/02/15 19:34:14;;;;;;;8.77;5.60;;;16.60;44.80;;;;;;5031586;28;20416;-67
2023/02/15 19:36:41;;;;;;;7.73;5.87;;;16.60;44.70;;;;;;5030695;28;20599;-67
2023/02/15 19:39:21;;;;;;;6.43;5.53;;;16.60;44.70;;;;;;5031607;28;20418;-67
2023/02/15 19:41:47;;;;;;;6.97;6.23;;;16.70;44.70;;;;;;5031566;28;20462;-67
2023/02/15 19:44:12;;;;;;;7.70;6.63;;;16.70;44.70;;;;;;5031798;28;20736;-67
2023/02/15 19:46:38;;;;;;;7.70;6.40;;;16.70;44.70;;;;;;5031371;28;20279;-66
2023/02/15 19:49:03;;;;;;;8.60;5.90;;;16.70;44.60;;;;;;5031371;28;20170;-67
2023/02/15 19:51:29;;;;;;;7.33;6.37;;;16.70;44.60;;;;;;5031444;28;20183;-67
2023/02/15 19:53:56;;;;;;;7.80;6.07;;;16.80;44.60;;;;;;5031172;28;20180;-66
2023/02/15 19:56:23;;;;;;;8.63;6.87;;;16.70;44.50;;;;;;5031358;28;20200;-66
2023/02/15 19:58:50;;;;;;;7.30;6.27;;;16.70;44.50;;;;;;5031231;28;20427;-66
2023/02/15 20:01:17;;;;;;;7.13;5.87;;;16.70;44.50;;;;;;5030864;28;20470;-67
2023/02/15 20:03:43;;;;;;;10.10;7.30;;;16.70;44.50;;;;;;5031133;28;20493;-67
2023/02/15 20:06:15;;;;;;;8.23;7.17;;;16.70;44.40;;;;;;5031000;28;20506;-66
2023/02/15 20:08:41;;;;;;;9.83;7.10;;;16.70;44.40;;;;;;5031087;28;20179;-67
2023/02/15 20:11:12;;;;;;;7.97;7.07;;;16.70;44.40;;;;;;5030934;28;20414;-67
2023/02/15 20:13:37;;;;;;;8.93;7.40;;;16.80;44.50;;;;;;5030884;28;20407;-66
2023/02/15 20:16:10;;;;;;;7.60;6.90;;;16.70;44.40;;;;;;5030749;28;20475;-67
2023/02/15 20:18:35;;;;;;;7.50;6.60;;;16.70;44.40;;;;;;5030926;28;20180;-66
2023/02/15 20:21:02;;;;;;;8.20;7.40;;;16.70;44.30;;;;;;5030898;28;20480;-66
2023/02/15 20:23:30;;;;;;;8.80;7.10;;;16.70;44.50;;;;;;5031523;28;20176;-65
2023/02/15 20:25:58;;;;;;;10.40;7.97;;;16.70;44.60;;;;;;5031519;28;20410;-66
2023/02/15 20:28:26;;;;;;;8.33;7.40;;;16.80;44.70;;;;;;5030955;28;20785;-66
2023/02/15 20:30:52;;;;;;;8.47;7.57;;;16.70;44.60;;;;;;5030901;28;20418;-66
2023/02/15 20:33:19;;;;;;;9.80;7.90;;;16.70;44.60;;;;;;5030824;28;20771;-66
2023/02/15 20:35:46;;;;;;;8.60;7.43;;;16.70;44.60;;;;;;5030744;28;20418;-66
2023/02/15 20:38:19;;;;;;;10.33;7.90;;;16.70;44.50;;;;;;5030734;28;20442;-67
2023/02/15 20:43:30;;;;;;;11.70;8.00;;;16.70;44.50;;;;;;5031396;28;20401;-72
2023/02/15 20:45:55;;;;;;;10.23;8.40;;;16.70;44.60;;;;;;5030291;28;20774;-72
2023/02/15 20:48:21;;;;;;;8.37;7.53;;;16.70;44.60;;;;;;5030324;28;20184;-72
2023/02/15 20:50:47;;;;;;;9.70;7.43;;;16.70;44.60;;;;;;5030547;28;20537;-70
2023/02/15 20:53:12;;;;;;;8.70;7.77;;;16.60;44.40;;;;;;5030485;27;20182;-71
2023/02/15 20:55:38;;;;;;;9.17;8.17;;;16.60;44.40;;;;;;5030542;28;20422;-72
2023/02/15 20:58:28;;;;;;;8.00;6.90;;;16.60;44.50;;;;;;5030630;28;20196;-70
2023/02/15 21:00:58;;;;;;;8.03;7.20;;;16.60;44.50;;;;;;5030437;28;20208;-72
2023/02/15 21:03:26;;;;;;;8.93;8.03;;;16.60;44.40;;;;;;5030265;28;20498;-71
2023/02/15 21:05:52;;;;;;;7.50;6.47;;;16.60;44.50;;;;;;5030236;28;20438;-72
2023/02/15 21:08:20;;;;;;;10.53;7.60;;;16.60;44.50;;;;;;5030369;28;20454;-72
2023/02/15 21:10:47;;;;;;;9.00;7.00;;;16.60;44.50;;;;;;5030485;28;20172;-72
2023/02/15 21:13:30;;;;;;;9.37;8.00;;;16.60;44.50;;;;;;5030506;28;20418;-72
2023/02/15 21:15:57;;;;;;;9.07;7.90;;;16.60;44.50;;;;;;5031246;28;20383;-65
2023/02/15 21:18:28;;;;;;;8.23;7.07;;;16.60;44.50;;;;;;5030451;28;20800;-67
2023/02/15 21:20:57;;;;;;;8.37;7.27;;;16.50;44.40;;;;;;5030370;28;20452;-66
2023/02/15 21:23:38;;;;;;;9.23;7.40;;;16.50;44.50;;;;;;5030172;28;20411;-65
2023/02/15 21:26:04;;;;;;;8.00;6.77;;;16.60;44.50;;;;;;5030113;28;20460;-65
2023/02/15 21:28:30;;;;;;;11.80;7.90;;;16.50;44.40;;;;;;5030117;28;20519;-65
2023/02/15 21:30:56;;;;;;;8.30;7.47;;;16.50;44.40;;;;;;5030042;28;20428;-65
2023/02/15 21:33:23;;;;;;;9.53;8.27;;;16.50;44.40;;;;;;5030135;28;20176;-64
2023/02/15 21:35:54;;;;;;;8.27;6.80;;;16.50;44.40;;;;;;5030054;28;20417;-65
2023/02/15 21:38:27;;;;;;;8.70;7.80;;;16.50;44.40;;;;;;5029967;28;20418;-65
2023/02/15 21:40:52;;;;;;;9.73;7.40;;;16.50;44.40;;;;;;5029904;28;20450;-65
2023/02/15 21:48:58;;;;;;;8.43;7.23;;;16.50;44.40;;;;;;5029782;28;20439;-65
2023/02/15 21:54:12;;;;;;;8.60;7.57;;;16.40;44.40;;;;;;5029590;28;20206;-65
2023/02/15 21:56:37;;;;;;;8.17;7.33;;;16.40;44.40;;;;;;5029623;28;20434;-65
2023/02/15 21:59:11;;;;;;;9.47;7.37;;;16.50;44.50;;;;;;5031351;28;20418;-63
2023/02/15 22:01:40;;;;;;;8.87;7.77;;;16.50;44.40;;;;;;5031497;28;20293;-65
2023/02/15 22:04:13;;;;;;;8.40;7.20;;;16.40;44.40;;;;;;5033076;28;20414;-65
2023/02/15 22:06:39;;;;;;;8.30;7.40;;;16.50;44.40;;;;;;5032915;28;20509;-64
2023/02/15 22:09:15;;;;;;;8.07;7.27;;;16.40;44.30;;;;;;5032974;28;20411;-63
2023/02/15 22:11:41;;;;;;;9.77;7.20;;;16.50;44.40;;;;;;5033251;28;20445;-65
2023/02/15 22:14:38;;;;;;;10.23;6.70;;;16.50;44.40;;;;;;5032741;28;20417;-66
2023/02/15 22:17:12;;;;;;;8.10;7.30;;;16.50;44.30;;;;;;5032754;28;20203;-66
2023/02/15 22:19:38;;;;;;;9.47;7.60;;;16.40;44.20;;;;;;5032972;28;20413;-64
2023/02/15 22:22:03;;;;;;;8.80;7.17;;;16.40;44.20;;;;;;5032479;28;20450;-65
2023/02/15 22:24:29;;;;;;;9.07;7.10;;;16.50;44.20;;;;;;5032806;28;20172;-65
2023/02/15 22:26:54;;;;;;;8.40;7.60;;;16.40;44.10;;;;;;5032586;28;20661;-64
2023/02/15 22:29:20;;;;;;;8.27;6.60;;;16.50;44.30;;;;;;5032611;28;20180;-65
2023/02/15 22:31:47;;;;;;;9.10;7.50;;;16.50;44.20;;;;;;5032220;28;20171;-65
2023/02/15 22:34:28;;;;;;;8.77;6.83;;;16.50;44.20;;;;;;5032226;28;20265;-65
2023/02/15 22:36:55;;;;;;;8.67;7.50;;;16.50;44.10;;;;;;5032182;28;20426;-65
2023/02/15 22:39:21;;;;;;;8.37;7.00;;;16.50;44.20;;;;;;5032273;28;20416;-65
2023/02/15 22:41:48;;;;;;;7.83;7.03;;;16.50;44.20;;;;;;5032433;28;20939;-64
2023/02/15 22:44:24;;;;;;;8.37;7.20;;;16.40;44.00;;;;;;5030848;28;20414;-65
2023/02/15 22:46:50;;;;;;;7.93;7.13;;;16.50;44.20;;;;;;5031042;28;20426;-65
2023/02/15 22:49:16;;;;;;;9.60;7.97;;;16.40;44.10;;;;;;5032298;28;20463;-66